Time;durP1;ratioP1;P1;durP2;ratioP2;P2;SDS_P1;SDS_P2;PMS_P1;PMS_P2;Temp;Humidity;BMP_temperature;BMP_pressure;BME280_temperature;BME280_humidity;BME280_pressure;Samples;Min_cycle;Max_cycle;Signal;HPM_P1;HPM_P2
2021/04/03 00:00:58;;;;;;;10.70;9.60;;;6.00;99.90;;;;;;5029066;28;20053;-70
2021/04/03 00:03:27;;;;;;;12.73;9.77;;;6.00;99.90;;;;;;5028953;28;20053;-70
2021/04/03 00:05:55;;;;;;;10.27;9.27;;;5.90;99.90;;;;;;5028317;28;20061;-70
2021/04/03 00:08:24;;;;;;;12.20;9.48;;;5.90;99.90;;;;;;5030338;28;20446;-70
2021/04/03 00:10:59;;;;;;;10.55;9.43;;;5.80;99.90;;;;;;5033140;28;20042;-69
2021/04/03 00:13:37;;;;;;;15.32;9.52;;;5.80;99.90;;;;;;5031595;28;20053;-70
2021/04/03 00:16:05;;;;;;;10.57;9.55;;;5.70;99.90;;;;;;5050128;28;20050;-69
2021/04/03 00:18:32;;;;;;;17.25;9.88;;;5.70;99.90;;;;;;5029481;28;20142;-69
2021/04/03 00:20:59;;;;;;;11.65;10.10;;;5.70;99.90;;;;;;5029066;28;20049;-69
2021/04/03 00:23:26;;;;;;;11.77;9.60;;;5.70;99.90;;;;;;5051581;28;20080;-69
2021/04/03 00:25:55;;;;;;;11.38;10.18;;;5.70;99.90;;;;;;5027712;28;20053;-70
2021/04/03 00:28:22;;;;;;;12.85;10.07;;;5.70;99.90;;;;;;5030527;28;20045;-70
2021/04/03 00:30:48;;;;;;;10.95;9.40;;;5.70;99.90;;;;;;5028872;28;20405;-69
2021/04/03 00:33:15;;;;;;;9.93;8.93;;;5.70;99.90;;;;;;5028492;28;20045;-69
2021/04/03 00:35:46;;;;;;;10.95;9.85;;;5.70;99.90;;;;;;5020761;28;20049;-70
2021/04/03 00:38:13;;;;;;;10.57;9.65;;;5.70;99.90;;;;;;5030927;28;20085;-70
2021/04/03 00:40:48;;;;;;;12.23;9.40;;;5.50;99.90;;;;;;5031707;28;20057;-70
2021/04/03 00:43:17;;;;;;;10.70;9.70;;;5.50;99.90;;;;;;5030080;28;20099;-70
2021/04/03 00:45:46;;;;;;;10.75;9.65;;;5.50;99.90;;;;;;5027452;28;20080;-70
2021/04/03 00:48:13;;;;;;;13.40;9.55;;;5.40;99.90;;;;;;5030037;28;20045;-69
2021/04/03 00:50:42;;;;;;;14.63;9.43;;;5.20;99.90;;;;;;5022405;28;20045;-69
2021/04/03 00:53:14;;;;;;;14.65;9.80;;;5.20;99.90;;;;;;5030535;28;20049;-69
2021/04/03 00:55:47;;;;;;;13.20;9.57;;;5.10;99.90;;;;;;5023677;28;20091;-69
2021/04/03 00:58:16;;;;;;;10.18;9.18;;;5.00;99.90;;;;;;5024306;28;20140;-69
2021/04/03 01:00:46;;;;;;;10.52;9.52;;;5.00;99.90;;;;;;5027391;28;20053;-69
2021/04/03 01:03:13;;;;;;;10.90;9.75;;;5.00;99.90;;;;;;5020324;28;20062;-70
2021/04/03 01:05:41;;;;;;;13.15;9.23;;;4.90;99.90;;;;;;5027534;28;20042;-69
2021/04/03 01:08:11;;;;;;;12.57;9.70;;;4.90;99.90;;;;;;5015163;28;20519;-69
2021/04/03 01:10:43;;;;;;;12.23;9.25;;;4.90;99.90;;;;;;5029485;28;20052;-69
2021/04/03 01:13:33;;;;;;;10.82;9.55;;;4.90;99.90;;;;;;5028340;28;20057;-69
2021/04/03 01:16:33;;;;;;;;;;;4.90;99.90;;;;;;5022044;28;20142;-69
2021/04/03 01:19:28;;;;;;;11.88;9.25;;;4.80;99.90;;;;;;5034525;28;20430;-70
2021/04/03 01:22:09;;;;;;;11.35;9.63;;;4.90;99.90;;;;;;5046204;28;20049;-70
2021/04/03 01:24:56;;;;;;;11.48;9.60;;;4.90;99.90;;;;;;5044822;28;20434;-70
2021/04/03 01:27:26;;;;;;;12.70;9.95;;;4.90;99.90;;;;;;5013231;28;20076;-69
2021/04/03 01:30:05;;;;;;;9.82;8.88;;;5.00;99.90;;;;;;5032508;28;20041;-69
2021/04/03 01:32:48;;;;;;;14.60;10.43;;;5.00;99.90;;;;;;5034071;28;20056;-69
2021/04/03 01:35:28;;;;;;;15.10;9.23;;;5.10;99.90;;;;;;5033670;28;20052;-69
2021/04/03 01:38:05;;;;;;;11.73;8.50;;;5.10;99.90;;;;;;5029651;28;20045;-70
2021/04/03 01:40:34;;;;;;;12.27;9.43;;;5.10;99.90;;;;;;5016158;28;20049;-69
2021/04/03 01:43:11;;;;;;;11.52;8.90;;;5.10;99.90;;;;;;5033582;28;20272;-69
2021/04/03 01:45:40;;;;;;;13.95;9.38;;;5.10;99.90;;;;;;5047707;28;20049;-69
2021/04/03 01:48:11;;;;;;;12.05;9.07;;;5.10;99.90;;;;;;5036864;28;20037;-70
2021/04/03 01:50:41;;;;;;;10.50;8.52;;;5.10;99.90;;;;;;5032063;28;20045;-69
2021/04/03 01:53:12;;;;;;;10.65;9.23;;;5.10;99.90;;;;;;5030204;28;20050;-69
2021/04/03 01:55:40;;;;;;;9.98;8.95;;;5.10;99.90;;;;;;5030453;28;20045;-69
2021/04/03 01:58:09;;;;;;;12.05;9.35;;;5.10;99.90;;;;;;5046588;28;20053;-69
2021/04/03 02:00:39;;;;;;;9.98;8.98;;;5.10;99.90;;;;;;5033010;28;20053;-69
2021/04/03 02:03:06;;;;;;;10.68;8.85;;;5.10;99.90;;;;;;5030194;28;20424;-70
2021/04/03 02:05:36;;;;;;;11.75;8.70;;;5.10;99.90;;;;;;5047497;28;20055;-69
2021/04/03 02:08:35;;;;;;;11.05;8.77;;;5.00;99.90;;;;;;5030936;28;20673;-69
2021/04/03 02:11:20;;;;;;;10.27;8.60;;;5.10;99.90;;;;;;5029164;28;20053;-70
2021/04/03 02:13:51;;;;;;;11.77;9.25;;;5.10;99.90;;;;;;5024558;28;20053;-69
2021/04/03 02:16:21;;;;;;;13.20;10.05;;;5.10;99.90;;;;;;5021328;28;20045;-69
2021/04/03 02:18:49;;;;;;;9.30;8.40;;;5.10;99.90;;;;;;5025293;28;20099;-69
2021/04/03 02:21:18;;;;;;;13.90;8.90;;;5.10;99.90;;;;;;5021226;28;20527;-70
2021/04/03 02:23:48;;;;;;;10.38;9.25;;;5.10;99.90;;;;;;5033432;28;20099;-70
2021/04/03 02:26:15;;;;;;;10.63;8.38;;;5.10;99.90;;;;;;5032190;28;20129;-69
2021/04/03 02:28:42;;;;;;;11.00;8.80;;;5.10;99.90;;;;;;5030680;28;20049;-69
2021/04/03 02:31:09;;;;;;;11.23;8.73;;;5.20;99.90;;;;;;5047993;28;20506;-69
2021/04/03 02:33:40;;;;;;;13.30;8.80;;;5.20;99.90;;;;;;5032274;28;20129;-69
2021/04/03 02:36:08;;;;;;;9.52;8.52;;;5.20;99.90;;;;;;5034985;28;20057;-69
2021/04/03 02:38:35;;;;;;;11.25;9.10;;;5.20;99.90;;;;;;5033603;28;20128;-70
2021/04/03 02:41:07;;;;;;;9.73;8.80;;;5.30;99.90;;;;;;5016211;28;20080;-69
2021/04/03 02:43:54;;;;;;;9.98;9.00;;;5.30;99.90;;;;;;5032312;28;20627;-69
2021/04/03 02:46:46;;;;;;;9.85;8.80;;;5.30;99.90;;;;;;5032150;28;20499;-69
2021/04/03 02:49:28;;;;;;;9.80;8.63;;;5.40;99.90;;;;;;5019707;28;20073;-69
2021/04/03 02:52:00;;;;;;;9.93;8.88;;;5.30;99.90;;;;;;5032227;28;20430;-69
2021/04/03 02:54:29;;;;;;;12.15;8.63;;;5.20;99.90;;;;;;5032719;28;20038;-69
2021/04/03 02:56:59;;;;;;;11.85;8.73;;;5.30;99.90;;;;;;5032681;28;20055;-69
2021/04/03 02:59:36;;;;;;;8.82;7.93;;;5.20;99.90;;;;;;5048681;28;20053;-69
2021/04/03 03:02:06;;;;;;;9.32;8.35;;;5.20;99.90;;;;;;5019508;28;20050;-69
2021/04/03 03:04:37;;;;;;;10.82;8.70;;;5.20;99.90;;;;;;5017691;28;20136;-69
2021/04/03 03:07:07;;;;;;;11.45;9.48;;;5.20;99.90;;;;;;5028453;28;20034;-69
2021/04/03 03:09:36;;;;;;;11.38;8.73;;;5.10;99.90;;;;;;5032683;28;20065;-69
2021/04/03 03:12:12;;;;;;;9.40;8.43;;;5.10;99.90;;;;;;5031452;28;20060;-69
2021/04/03 03:14:44;;;;;;;9.40;8.60;;;5.10;99.90;;;;;;5024672;28;20038;-69
2021/04/03 03:17:13;;;;;;;9.98;8.38;;;5.10;99.90;;;;;;5025997;28;20581;-70
2021/04/03 03:19:45;;;;;;;9.20;8.40;;;5.00;99.90;;;;;;5032546;28;20128;-69
2021/04/03 03:22:12;;;;;;;11.45;8.93;;;5.00;99.90;;;;;;5033000;28;20061;-68
2021/04/03 03:24:40;;;;;;;10.82;8.55;;;4.90;99.90;;;;;;5032263;28;20045;-68
2021/04/03 03:27:09;;;;;;;9.70;8.70;;;4.90;99.90;;;;;;5032925;28;20077;-69
2021/04/03 03:29:39;;;;;;;12.10;9.10;;;4.90;99.90;;;;;;5033384;28;20054;-69
2021/04/03 03:32:07;;;;;;;10.25;8.38;;;4.90;99.90;;;;;;5031897;28;20436;-69
2021/04/03 03:34:39;;;;;;;11.05;9.15;;;4.90;99.90;;;;;;5032012;28;20099;-68
2021/04/03 03:37:10;;;;;;;9.85;8.93;;;4.90;99.90;;;;;;5030823;28;20042;-68
2021/04/03 03:39:44;;;;;;;11.00;8.60;;;4.90;99.90;;;;;;5031984;28;20403;-69
2021/04/03 03:42:15;;;;;;;9.60;8.40;;;4.90;99.90;;;;;;5029612;28;20076;-68
2021/04/03 03:44:43;;;;;;;10.57;8.63;;;4.80;99.90;;;;;;5030513;28;20452;-68
2021/04/03 03:47:12;;;;;;;9.73;8.75;;;4.80;99.90;;;;;;5029180;28;20049;-69
2021/04/03 03:49:42;;;;;;;9.80;8.77;;;4.70;99.90;;;;;;5019924;28;20068;-69
2021/04/03 03:52:10;;;;;;;9.32;8.50;;;4.60;99.90;;;;;;5030288;28;20044;-68
2021/04/03 03:54:40;;;;;;;11.50;8.75;;;4.60;99.90;;;;;;5029786;28;20041;-69
2021/04/03 03:57:07;;;;;;;10.90;9.02;;;4.60;99.90;;;;;;5025859;28;20042;-69
2021/04/03 03:59:35;;;;;;;10.05;9.07;;;4.60;99.90;;;;;;5024097;28;20076;-69
2021/04/03 04:02:03;;;;;;;10.20;8.75;;;4.70;99.90;;;;;;5043106;28;20328;-69
2021/04/03 04:04:31;;;;;;;9.23;8.20;;;4.70;99.90;;;;;;5032906;28;20416;-69
2021/04/03 04:07:03;;;;;;;10.18;9.15;;;4.60;99.90;;;;;;5030340;28;20103;-69
2021/04/03 04:09:31;;;;;;;13.48;9.60;;;4.60;99.90;;;;;;5029664;28;20061;-69
2021/04/03 04:12:08;;;;;;;9.73;8.75;;;4.50;99.90;;;;;;5029177;28;20128;-69
2021/04/03 04:14:44;;;;;;;10.73;8.27;;;4.50;99.90;;;;;;5033452;28;20044;-71
2021/04/03 04:17:14;;;;;;;10.93;8.73;;;4.40;99.90;;;;;;5028497;28;20128;-69
2021/04/03 04:19:43;;;;;;;9.45;8.60;;;4.30;99.90;;;;;;5031195;28;20407;-69
2021/04/03 04:22:10;;;;;;;9.73;8.63;;;4.20;99.90;;;;;;5029907;28;20069;-69
2021/04/03 04:24:37;;;;;;;11.93;8.80;;;4.10;99.90;;;;;;5029499;28;20499;-69
2021/04/03 04:27:09;;;;;;;9.80;8.73;;;4.00;99.90;;;;;;5029232;28;20049;-69
2021/04/03 04:29:37;;;;;;;9.80;8.80;;;4.00;99.90;;;;;;5032164;28;20057;-69
2021/04/03 04:32:05;;;;;;;9.48;8.68;;;4.00;99.90;;;;;;5028633;28;20562;-69
2021/04/03 04:34:37;;;;;;;11.10;8.55;;;3.90;99.90;;;;;;5026830;28;20041;-69
2021/04/03 04:37:06;;;;;;;9.73;8.48;;;3.90;99.90;;;;;;5023309;28;20045;-69
2021/04/03 04:39:37;;;;;;;13.10;8.80;;;3.90;99.90;;;;;;5031597;28;20515;-69
2021/04/03 04:42:08;;;;;;;14.27;8.97;;;3.80;99.90;;;;;;5031092;28;20046;-69
2021/04/03 04:44:40;;;;;;;12.63;8.85;;;3.90;99.90;;;;;;5029643;28;20307;-69
2021/04/03 04:47:07;;;;;;;12.45;9.68;;;3.90;99.90;;;;;;5031747;28;20041;-69
2021/04/03 04:49:35;;;;;;;9.93;8.82;;;3.90;99.90;;;;;;5030365;28;20065;-69
2021/04/03 04:52:03;;;;;;;11.85;9.10;;;4.00;99.90;;;;;;5045608;28;20044;-69
2021/04/03 04:54:30;;;;;;;9.73;8.70;;;4.00;99.90;;;;;;5028918;28;20113;-69
2021/04/03 04:57:03;;;;;;;10.35;8.50;;;4.00;99.90;;;;;;5047169;28;20050;-69
2021/04/03 05:00:01;;;;;;;11.18;8.50;;;4.10;99.90;;;;;;5027445;28;20041;-69
2021/04/03 05:02:40;;;;;;;11.63;8.27;;;4.10;99.90;;;;;;5029995;28;20052;-69
2021/04/03 05:05:07;;;;;;;12.95;8.45;;;4.20;99.90;;;;;;5034061;28;20045;-69
2021/04/03 05:07:34;;;;;;;10.50;8.60;;;4.20;99.90;;;;;;5036448;28;20074;-69
2021/04/03 05:10:01;;;;;;;10.57;8.27;;;4.30;99.90;;;;;;5035630;28;20054;-69
2021/04/03 05:12:28;;;;;;;9.05;8.20;;;4.40;99.90;;;;;;5034644;28;20435;-69
2021/04/03 05:14:57;;;;;;;15.32;8.63;;;4.40;99.90;;;;;;5032878;28;20049;-68
2021/04/03 05:17:24;;;;;;;9.88;8.25;;;4.50;99.90;;;;;;5034156;28;20137;-68
2021/04/03 05:19:51;;;;;;;17.80;8.10;;;4.50;99.90;;;;;;5034939;28;20049;-70
2021/04/03 05:22:17;;;;;;;10.55;8.05;;;4.60;99.90;;;;;;5043132;28;20100;-69
2021/04/03 05:24:44;;;;;;;10.63;8.70;;;4.60;99.90;;;;;;5016046;28;20049;-69
2021/04/03 05:27:11;;;;;;;13.13;8.52;;;4.60;99.90;;;;;;5034821;28;20099;-69
2021/04/03 05:29:39;;;;;;;10.77;8.30;;;4.70;99.90;;;;;;5040267;28;20482;-69
2021/04/03 05:32:07;;;;;;;11.32;8.52;;;4.70;99.90;;;;;;5033514;28;20049;-69
2021/04/03 05:34:34;;;;;;;11.93;8.48;;;4.70;99.90;;;;;;5034201;28;20054;-69
2021/04/03 05:37:18;;;;;;;12.10;8.55;;;4.80;99.90;;;;;;5020880;28;20049;-69
2021/04/03 05:39:45;;;;;;;11.23;8.25;;;4.80;99.90;;;;;;5031490;28;20042;-70
2021/04/03 05:42:18;;;;;;;10.05;8.95;;;4.80;99.90;;;;;;5031612;28;20593;-71
2021/04/03 05:44:46;;;;;;;12.37;8.70;;;4.90;99.90;;;;;;5028259;28;20095;-68
2021/04/03 05:47:14;;;;;;;11.23;9.43;;;4.90;99.90;;;;;;5034533;28;20052;-68
2021/04/03 05:49:42;;;;;;;10.82;8.73;;;5.00;99.90;;;;;;5032599;28;20502;-69
2021/04/03 05:52:09;;;;;;;11.25;8.43;;;5.10;99.90;;;;;;5033112;28;20045;-69
2021/04/03 05:54:39;;;;;;;12.02;8.70;;;5.30;99.90;;;;;;5033177;28;20056;-68
2021/04/03 05:57:06;;;;;;;14.07;8.40;;;5.40;99.90;;;;;;5031720;28;20399;-68
2021/04/03 05:59:34;;;;;;;9.70;8.70;;;5.50;99.90;;;;;;5031387;28;20061;-68
2021/04/03 06:02:03;;;;;;;13.73;9.35;;;5.50;99.90;;;;;;5019423;28;20050;-68
2021/04/03 06:04:30;;;;;;;13.30;8.10;;;5.60;99.90;;;;;;5033010;28;20144;-71
2021/04/03 06:06:57;;;;;;;13.00;8.98;;;5.70;99.90;;;;;;5031212;28;20092;-68
2021/04/03 06:09:25;;;;;;;9.75;8.50;;;5.70;99.90;;;;;;5033217;28;20423;-69
2021/04/03 06:11:51;;;;;;;12.48;9.27;;;5.70;99.90;;;;;;5031592;28;20062;-69
2021/04/03 06:14:18;;;;;;;17.75;8.80;;;5.70;99.90;;;;;;5031617;28;20049;-69
2021/04/03 06:16:49;;;;;;;13.18;8.95;;;5.60;99.90;;;;;;5039303;28;20080;-70
2021/04/03 06:19:24;;;;;;;11.00;8.93;;;5.50;99.90;;;;;;5032208;28;20037;-69
2021/04/03 06:21:54;;;;;;;14.30;9.18;;;5.50;99.90;;;;;;5032446;28;20057;-69
2021/04/03 06:24:37;;;;;;;14.40;9.38;;;5.50;99.90;;;;;;5030855;28;20140;-69
2021/04/03 06:27:13;;;;;;;16.33;9.52;;;5.50;99.90;;;;;;5033676;28;20052;-69
2021/04/03 06:29:57;;;;;;;11.43;9.00;;;5.40;99.90;;;;;;5030349;28;20129;-70
2021/04/03 06:32:31;;;;;;;13.35;8.88;;;5.20;99.90;;;;;;5029965;28;20135;-69
2021/04/03 06:34:58;;;;;;;13.85;9.20;;;5.10;99.90;;;;;;5046385;28;20049;-70
2021/04/03 06:37:26;;;;;;;12.48;8.93;;;5.00;99.90;;;;;;5032684;28;20133;-70
2021/04/03 06:40:06;;;;;;;14.25;9.52;;;5.00;99.90;;;;;;5032263;28;20049;-69
2021/04/03 06:42:39;;;;;;;12.75;9.02;;;5.10;99.90;;;;;;5032957;28;20049;-69
2021/04/03 06:45:28;;;;;;;9.82;8.82;;;5.10;99.90;;;;;;5029063;28;20053;-69
2021/04/03 06:48:02;;;;;;;12.00;9.05;;;5.10;99.90;;;;;;5031513;28;20049;-69
2021/04/03 06:50:32;;;;;;;17.15;9.07;;;5.20;99.90;;;;;;5030568;28;20132;-71
2021/04/03 06:53:16;;;;;;;15.77;8.82;;;5.30;99.90;;;;;;5026825;28;20066;-69
2021/04/03 06:55:46;;;;;;;15.63;8.85;;;5.40;99.90;;;;;;5031614;28;20065;-70
2021/04/03 06:58:14;;;;;;;16.58;9.10;;;5.50;99.90;;;;;;5032763;28;20049;-70
2021/04/03 07:00:41;;;;;;;15.25;8.77;;;5.50;99.90;;;;;;5039973;28;20069;-69
2021/04/03 07:03:20;;;;;;;11.50;8.70;;;5.50;99.90;;;;;;5047464;28;20378;-70
2021/04/03 07:05:47;;;;;;;10.65;8.55;;;5.60;99.90;;;;;;5029511;28;20095;-70
2021/04/03 07:08:16;;;;;;;12.75;9.02;;;5.70;99.90;;;;;;5031128;28;20529;-71
2021/04/03 07:10:48;;;;;;;15.43;8.70;;;5.80;99.90;;;;;;5030341;28;20077;-70
2021/04/03 07:13:15;;;;;;;16.25;8.80;;;5.70;99.90;;;;;;5031219;28;20599;-69
2021/04/03 07:15:45;;;;;;;14.32;9.38;;;5.60;99.90;;;;;;5030934;28;20045;-69
2021/04/03 07:18:13;;;;;;;13.43;9.55;;;5.70;99.90;;;;;;5010829;28;20496;-70
2021/04/03 07:20:40;;;;;;;12.38;8.50;;;5.80;99.90;;;;;;5027124;28;20053;-69
2021/04/03 07:23:13;;;;;;;10.73;8.50;;;6.10;99.90;;;;;;5031100;28;20132;-68
2021/04/03 07:25:43;;;;;;;12.43;8.57;;;6.20;99.90;;;;;;5029474;28;20142;-69
2021/04/03 07:28:10;;;;;;;11.57;8.07;;;6.50;99.90;;;;;;5030997;28;20403;-69
2021/04/03 07:30:40;;;;;;;12.27;9.15;;;6.80;99.90;;;;;;5030179;28;20077;-70
2021/04/03 07:33:23;;;;;;;14.82;9.30;;;6.90;99.90;;;;;;5030950;28;20049;-70
2021/04/03 07:35:49;;;;;;;;;;;6.80;99.90;;;;;;5019364;28;20469;-69
2021/04/03 07:38:28;;;;;;;11.35;8.50;;;6.90;99.90;;;;;;5027670;28;19921;-69
2021/04/03 07:40:56;;;;;;;13.45;9.23;;;6.90;99.90;;;;;;5020885;28;20577;-68
2021/04/03 07:43:29;;;;;;;14.85;9.95;;;7.10;99.90;;;;;;5029609;28;20128;-69
2021/04/03 07:45:58;;;;;;;14.27;9.00;;;7.30;99.90;;;;;;5043094;28;20422;-70
2021/04/03 07:48:55;;;;;;;11.50;9.07;;;7.50;99.90;;;;;;5045397;28;20053;-69
2021/04/03 07:51:22;;;;;;;17.20;9.38;;;7.80;99.90;;;;;;5027587;28;20183;-69
2021/04/03 07:53:54;;;;;;;12.85;10.05;;;7.80;99.90;;;;;;5011345;28;20140;-69
2021/04/03 07:56:26;;;;;;;15.30;9.25;;;7.60;99.90;;;;;;5019286;28;20131;-69
2021/04/03 07:58:58;;;;;;;11.88;9.00;;;7.40;99.90;;;;;;5045351;28;20547;-69
2021/04/03 08:01:45;;;;;;;10.90;9.10;;;7.50;99.90;;;;;;5015721;28;20045;-69
2021/04/03 08:04:12;;;;;;;11.98;9.40;;;7.60;99.90;;;;;;5029702;28;20380;-70
2021/04/03 08:06:43;;;;;;;13.43;9.32;;;7.80;99.90;;;;;;5042454;28;20107;-69
2021/04/03 08:09:14;;;;;;;11.02;9.70;;;7.90;99.90;;;;;;5029482;28;20483;-69
2021/04/03 08:11:43;;;;;;;13.10;9.82;;;8.10;99.90;;;;;;5028802;28;20050;-69
2021/04/03 08:14:12;;;;;;;11.85;9.25;;;8.30;99.90;;;;;;5027892;28;20197;-69
2021/04/03 08:16:40;;;;;;;10.52;9.00;;;8.50;99.90;;;;;;5029243;28;20133;-69
2021/04/03 08:19:08;;;;;;;10.70;8.98;;;8.70;99.90;;;;;;5029855;28;20047;-69
2021/04/03 08:21:46;;;;;;;11.23;9.32;;;8.80;99.90;;;;;;5013273;28;20059;-70
2021/04/03 08:24:18;;;;;;;10.18;9.00;;;8.70;99.90;;;;;;5028934;28;20453;-69
2021/04/03 08:26:46;;;;;;;9.27;8.32;;;8.80;99.90;;;;;;5029922;28;20060;-69
2021/04/03 08:29:39;;;;;;;10.27;9.10;;;8.90;99.90;;;;;;5027954;28;20133;-69
2021/04/03 08:32:07;;;;;;;9.40;8.32;;;8.90;99.90;;;;;;5027844;28;20045;-69
2021/04/03 08:34:42;;;;;;;9.45;8.57;;;9.10;99.90;;;;;;5029572;28;20137;-69
2021/04/03 08:37:09;;;;;;;9.43;8.52;;;9.20;99.90;;;;;;5030329;28;20071;-70
2021/04/03 08:39:36;;;;;;;13.07;9.65;;;9.40;99.90;;;;;;5030840;28;20053;-69
2021/04/03 08:42:03;;;;;;;9.55;8.65;;;9.30;99.90;;;;;;5026880;28;20052;-69
2021/04/03 08:44:31;;;;;;;10.75;8.95;;;9.20;99.90;;;;;;5027679;28;20053;-69
2021/04/03 08:47:00;;;;;;;10.13;9.18;;;9.10;99.90;;;;;;5027926;28;20049;-68
2021/04/03 08:49:37;;;;;;;12.60;9.73;;;9.00;99.90;;;;;;5023653;28;20049;-68
2021/04/03 08:52:07;;;;;;;10.50;9.40;;;9.10;99.90;;;;;;5028087;28;20136;-68
2021/04/03 08:54:39;;;;;;;11.60;8.55;;;9.30;99.90;;;;;;5045773;28;20069;-68
2021/04/03 08:57:30;;;;;;;9.57;8.60;;;9.60;99.90;;;;;;5029109;28;20050;-68
2021/04/03 08:59:59;;;;;;;11.52;9.05;;;10.00;99.90;;;;;;5029813;28;20456;-71
2021/04/03 09:02:27;;;;;;;9.60;8.73;;;10.10;99.90;;;;;;5015215;28;20049;-70
2021/04/03 09:04:54;;;;;;;9.60;8.70;;;9.90;99.90;;;;;;5031172;28;20069;-68
2021/04/03 09:07:36;;;;;;;10.00;9.10;;;10.00;99.90;;;;;;5026287;28;20061;-70
2021/04/03 09:10:12;;;;;;;9.65;8.55;;;10.00;99.90;;;;;;5029603;28;20604;-70
2021/04/03 09:12:38;;;;;;;11.13;8.75;;;10.30;99.90;;;;;;5028727;28;20050;-68
2021/04/03 09:15:07;;;;;;;9.40;8.45;;;10.40;99.90;;;;;;5028481;28;20080;-69
2021/04/03 09:17:34;;;;;;;10.10;8.95;;;10.60;99.90;;;;;;5029093;28;20055;-70
2021/04/03 09:20:13;;;;;;;9.90;8.90;;;10.50;99.90;;;;;;5029237;28;20131;-71
2021/04/03 09:22:42;;;;;;;14.20;8.48;;;10.20;99.90;;;;;;5028507;28;20052;-70
2021/04/03 09:25:14;;;;;;;15.73;9.60;;;9.90;99.90;;;;;;5028620;28;20119;-70
2021/04/03 09:27:41;;;;;;;11.10;9.50;;;9.50;99.90;;;;;;5026164;28;20045;-70
2021/04/03 09:30:11;;;;;;;10.90;8.88;;;9.40;99.90;;;;;;5028689;28;20440;-70
2021/04/03 09:32:48;;;;;;;9.82;8.20;;;9.20;99.90;;;;;;5026824;28;20054;-69
2021/04/03 09:35:27;;;;;;;9.02;8.05;;;9.40;99.90;;;;;;4992170;28;20069;-70
2021/04/03 09:37:57;;;;;;;9.15;8.25;;;9.70;99.90;;;;;;5008539;28;20050;-70
2021/04/03 09:40:43;;;;;;;10.70;8.48;;;10.20;99.90;;;;;;5031417;28;20103;-70
2021/04/03 09:43:14;;;;;;;9.27;8.38;;;10.80;99.90;;;;;;5024910;28;20061;-70
2021/04/03 09:45:44;;;;;;;10.85;8.50;;;11.20;99.90;;;;;;5034819;28;20129;-72
2021/04/03 09:48:11;;;;;;;10.35;9.20;;;11.70;99.90;;;;;;5028986;28;20061;-69
2021/04/03 09:50:40;;;;;;;12.13;9.00;;;12.00;99.90;;;;;;5031504;28;20052;-69
2021/04/03 09:53:09;;;;;;;10.05;9.05;;;12.50;99.80;;;;;;5033722;28;20120;-68
2021/04/03 09:55:37;;;;;;;12.93;9.07;;;12.70;99.00;;;;;;5026490;28;20443;-71
2021/04/03 09:58:04;;;;;;;9.52;8.63;;;12.90;98.00;;;;;;5023055;28;20041;-71
2021/04/03 10:00:31;;;;;;;9.82;8.80;;;12.40;98.10;;;;;;5027880;28;20137;-71
2021/04/03 10:02:59;;;;;;;9.80;8.82;;;11.70;98.90;;;;;;5018033;28;20056;-70
2021/04/03 10:05:26;;;;;;;9.52;8.63;;;11.30;99.60;;;;;;5033059;28;20139;-70
2021/04/03 10:07:52;;;;;;;9.60;8.80;;;10.90;99.90;;;;;;5030339;28;20044;-70
2021/04/03 10:10:19;;;;;;;10.77;8.70;;;10.40;99.90;;;;;;5033766;28;20140;-70
2021/04/03 10:12:46;;;;;;;9.88;8.98;;;10.40;99.90;;;;;;5031301;28;20151;-70
2021/04/03 10:15:13;;;;;;;10.88;8.48;;;10.30;99.90;;;;;;5030959;28;20094;-70
2021/04/03 10:17:40;;;;;;;11.18;9.00;;;10.50;99.90;;;;;;5031782;28;20041;-68
2021/04/03 10:20:07;;;;;;;10.40;9.30;;;10.70;99.90;;;;;;5031854;28;20045;-69
2021/04/03 10:22:34;;;;;;;9.10;8.20;;;11.00;99.90;;;;;;5048235;28;20060;-70
2021/04/03 10:25:02;;;;;;;24.80;16.13;;;11.40;99.70;;;;;;5032106;28;20115;-69
2021/04/03 10:27:29;;;;;;;10.60;9.45;;;12.00;98.90;;;;;;5031081;28;20487;-69
2021/04/03 10:29:56;;;;;;;9.82;8.15;;;12.70;97.30;;;;;;5030259;28;20243;-70
2021/04/03 10:32:23;;;;;;;9.80;7.90;;;13.20;96.30;;;;;;5024002;28;20091;-69
2021/04/03 10:34:50;;;;;;;10.45;8.23;;;13.80;94.80;;;;;;5027861;28;20060;-69
2021/04/03 10:37:17;;;;;;;9.07;8.27;;;14.40;93.20;;;;;;5031966;28;20124;-69
2021/04/03 10:39:44;;;;;;;9.27;7.82;;;14.90;91.90;;;;;;5032106;28;20051;-69
2021/04/03 10:42:11;;;;;;;10.23;8.32;;;14.90;90.00;;;;;;5031580;28;20556;-70
2021/04/03 10:44:38;;;;;;;9.52;8.15;;;14.40;88.10;;;;;;5032965;28;20045;-72
2021/04/03 10:47:05;;;;;;;10.80;8.80;;;13.90;89.70;;;;;;5030992;28;20050;-71
2021/04/03 10:49:32;;;;;;;11.90;8.98;;;12.90;91.70;;;;;;5030488;28;20519;-71
2021/04/03 10:51:59;;;;;;;9.18;8.18;;;12.40;92.20;;;;;;5031399;28;20392;-70
2021/04/03 10:54:26;;;;;;;12.65;8.90;;;12.30;91.00;;;;;;5032087;28;20403;-70
2021/04/03 10:56:53;;;;;;;8.68;7.80;;;12.50;90.50;;;;;;5047487;28;20143;-70
2021/04/03 10:59:20;;;;;;;8.93;8.07;;;12.90;87.80;;;;;;5023796;28;20472;-70
2021/04/03 11:01:47;;;;;;;8.73;7.82;;;13.40;86.40;;;;;;5017191;28;20096;-70
2021/04/03 11:04:14;;;;;;;8.65;7.75;;;13.90;84.50;;;;;;5016657;28;20056;-70
2021/04/03 11:06:41;;;;;;;9.05;7.57;;;14.40;83.30;;;;;;5032562;28;20053;-71
2021/04/03 11:09:08;;;;;;;8.10;7.40;;;14.70;82.70;;;;;;5045813;28;20223;-70
2021/04/03 11:11:35;;;;;;;8.55;7.75;;;15.10;81.30;;;;;;5031873;28;20343;-69
2021/04/03 11:14:02;;;;;;;7.97;7.28;;;15.60;79.70;;;;;;5030488;28;20052;-69
2021/04/03 11:16:30;;;;;;;8.55;7.85;;;15.60;78.30;;;;;;5037874;28;20104;-69
2021/04/03 11:18:57;;;;;;;8.60;7.93;;;15.50;76.40;;;;;;5031747;28;20046;-68
2021/04/03 11:21:24;;;;;;;11.40;10.30;;;15.30;77.90;;;;;;5030382;28;20548;-70
2021/04/03 11:23:51;;;;;;;10.50;8.10;;;15.50;79.10;;;;;;5030794;28;20072;-69
2021/04/03 11:26:18;;;;;;;8.88;8.00;;;15.60;78.00;;;;;;5029945;28;20136;-70
2021/04/03 11:28:45;;;;;;;9.23;8.32;;;15.40;76.50;;;;;;5032259;28;20049;-70
2021/04/03 11:31:12;;;;;;;8.65;7.75;;;15.20;76.50;;;;;;5031001;28;20068;-69
2021/04/03 11:33:38;;;;;;;9.68;7.78;;;15.10;77.00;;;;;;5031506;28;20064;-70
2021/04/03 11:36:06;;;;;;;9.43;7.97;;;15.30;76.70;;;;;;5032514;28;20437;-70
2021/04/03 11:38:33;;;;;;;9.02;8.20;;;14.90;75.00;;;;;;5030863;28;20202;-70
2021/04/03 11:41:01;;;;;;;9.20;8.18;;;14.10;76.70;;;;;;5030975;28;20041;-70
2021/04/03 11:43:28;;;;;;;10.32;9.05;;;13.80;79.50;;;;;;5030963;28;20037;-69
2021/04/03 11:45:55;;;;;;;12.98;10.63;;;14.00;80.40;;;;;;5031357;28;20558;-69
2021/04/03 11:48:22;;;;;;;9.68;8.48;;;14.00;78.90;;;;;;5020039;28;20059;-70
2021/04/03 11:50:53;;;;;;;8.77;7.97;;;13.90;78.70;;;;;;5021765;28;20064;-69
2021/04/03 11:53:20;;;;;;;9.48;8.60;;;13.70;79.70;;;;;;5020768;28;20041;-70
2021/04/03 11:55:47;;;;;;;11.50;8.75;;;13.90;79.40;;;;;;5028251;28;20041;-70
2021/04/03 11:58:14;;;;;;;11.60;8.95;;;13.90;77.90;;;;;;5030179;28;20098;-70
2021/04/03 12:00:41;;;;;;;23.33;15.90;;;13.70;78.10;;;;;;5031680;28;20081;-70
2021/04/03 12:03:08;;;;;;;10.50;9.15;;;13.50;79.10;;;;;;5030482;28;20104;-72
2021/04/03 12:05:35;;;;;;;11.13;7.88;;;13.40;80.00;;;;;;5030349;28;20128;-70
2021/04/03 12:08:02;;;;;;;9.38;8.57;;;13.10;80.50;;;;;;5029956;28;20041;-69
2021/04/03 12:10:29;;;;;;;10.18;9.13;;;13.00;81.30;;;;;;5030746;28;20125;-70
2021/04/03 12:12:56;;;;;;;11.13;9.50;;;12.80;81.30;;;;;;5030343;28;20060;-71
2021/04/03 12:15:24;;;;;;;10.00;8.90;;;12.60;81.80;;;;;;5025433;28;20088;-71
2021/04/03 12:17:51;;;;;;;9.18;8.27;;;12.50;82.30;;;;;;5030257;28;20064;-69
2021/04/03 12:20:18;;;;;;;9.30;8.40;;;12.60;82.40;;;;;;5041589;28;20073;-70
2021/04/03 12:22:45;;;;;;;9.68;8.77;;;12.50;82.40;;;;;;5017409;28;20065;-70
2021/04/03 12:25:13;;;;;;;10.52;9.40;;;12.40;82.70;;;;;;5021965;28;20072;-68
2021/04/03 12:27:41;;;;;;;9.07;8.27;;;12.30;83.70;;;;;;5019418;28;20573;-69
2021/04/03 12:30:09;;;;;;;9.48;8.57;;;12.50;83.70;;;;;;5024586;28;20349;-68
2021/04/03 12:32:36;;;;;;;8.80;8.00;;;12.70;82.90;;;;;;5028218;28;20138;-70
2021/04/03 12:35:04;;;;;;;9.52;8.63;;;12.70;82.50;;;;;;5030595;28;20151;-70
2021/04/03 12:37:31;;;;;;;9.00;8.20;;;12.80;82.80;;;;;;5028950;28;20041;-68
2021/04/03 12:39:58;;;;;;;9.48;7.72;;;12.80;82.70;;;;;;5011430;28;20080;-70
2021/04/03 12:42:26;;;;;;;8.60;7.80;;;12.80;81.10;;;;;;5025583;28;20045;-69
2021/04/03 12:44:53;;;;;;;8.85;8.00;;;12.80;80.40;;;;;;5030761;28;20053;-68
2021/04/03 12:47:20;;;;;;;8.75;8.05;;;12.70;81.70;;;;;;5029452;28;20512;-69
2021/04/03 12:49:47;;;;;;;9.75;8.95;;;12.90;81.90;;;;;;5030161;28;20046;-69
2021/04/03 12:52:14;;;;;;;9.07;8.18;;;13.20;82.30;;;;;;5028993;28;20057;-70
2021/04/03 12:54:41;;;;;;;9.40;8.50;;;13.30;82.80;;;;;;5014238;28;20069;-69
2021/04/03 12:57:09;;;;;;;9.88;8.52;;;13.40;81.90;;;;;;5019565;28;20135;-69
2021/04/03 12:59:36;;;;;;;9.18;8.27;;;13.70;82.20;;;;;;5026870;28;20136;-69
2021/04/03 13:02:04;;;;;;;9.82;8.90;;;13.90;81.80;;;;;;5015956;28;20045;-70
2021/04/03 13:04:31;;;;;;;9.68;8.77;;;14.90;80.70;;;;;;5029333;28;20162;-69